sensor_id;sensor_type;location;lat;lon;timestamp;pressure;altitude;pressure_sealevel;temperature;humidity
80566;BME280;69915;54.862;10.730;2023-07-09T00:01:20;102065.53;;;15.55;81.09
80566;BME280;69915;54.862;10.730;2023-07-09T00:03:46;102045.88;;;15.38;82.09
80566;BME280;69915;54.862;10.730;2023-07-09T00:06:18;102072.16;;;15.54;83.65
80566;BME280;69915;54.862;10.730;2023-07-09T00:08:45;102076.22;;;15.61;83.68
80566;BME280;69915;54.862;10.730;2023-07-09T00:11:14;102047.81;;;15.37;83.15
80566;BME280;69915;54.862;10.730;2023-07-09T00:13:40;102074.72;;;15.45;84.19
80566;BME280;69915;54.862;10.730;2023-07-09T00:16:22;102049.34;;;15.48;84.31
80566;BME280;69915;54.862;10.730;2023-07-09T00:18:49;102058.28;;;15.35;83.52
80566;BME280;69915;54.862;10.730;2023-07-09T00:21:20;102078.72;;;15.34;84.61
80566;BME280;69915;54.862;10.730;2023-07-09T00:23:46;102051.34;;;15.14;85.09
80566;BME280;69915;54.862;10.730;2023-07-09T00:26:15;102072.78;;;15.22;85.13
80566;BME280;69915;54.862;10.730;2023-07-09T00:28:43;102054.59;;;15.21;85.89
80566;BME280;69915;54.862;10.730;2023-07-09T00:31:13;102054.84;;;15.24;85.76
80566;BME280;69915;54.862;10.730;2023-07-09T00:33:40;102049.75;;;15.13;85.31
80566;BME280;69915;54.862;10.730;2023-07-09T00:36:30;102074.41;;;15.23;85.61
80566;BME280;69915;54.862;10.730;2023-07-09T00:39:00;102068.72;;;15.38;85.05
80566;BME280;69915;54.862;10.730;2023-07-09T00:41:36;102047.41;;;15.25;84.15
80566;BME280;69915;54.862;10.730;2023-07-09T00:44:27;102062.75;;;15.31;83.93
80566;BME280;69915;54.862;10.730;2023-07-09T00:51:59;102052.00;;;15.06;83.37
80566;BME280;69915;54.862;10.730;2023-07-09T00:54:38;102070.78;;;15.27;84.72
80566;BME280;69915;54.862;10.730;2023-07-09T00:57:13;102055.34;;;15.03;83.70
80566;BME280;69915;54.862;10.730;2023-07-09T00:59:44;102064.44;;;15.03;83.86
80566;BME280;69915;54.862;10.730;2023-07-09T01:02:12;102067.88;;;15.14;83.81
80566;BME280;69915;54.862;10.730;2023-07-09T01:04:40;102082.50;;;15.38;84.16
80566;BME280;69915;54.862;10.730;2023-07-09T01:07:06;102057.66;;;15.19;83.74
80566;BME280;69915;54.862;10.730;2023-07-09T01:09:32;102079.06;;;15.27;84.07
80566;BME280;69915;54.862;10.730;2023-07-09T01:12:04;102070.13;;;15.36;83.87
80566;BME280;69915;54.862;10.730;2023-07-09T01:14:32;102064.44;;;15.27;84.01
80566;BME280;69915;54.862;10.730;2023-07-09T01:17:06;102059.84;;;15.22;83.93
80566;BME280;69915;54.862;10.730;2023-07-09T01:19:39;102088.16;;;15.28;84.34
80566;BME280;69915;54.862;10.730;2023-07-09T01:22:09;102092.53;;;15.29;84.10
80566;BME280;69915;54.862;10.730;2023-07-09T01:27:33;102084.09;;;15.49;84.28
80566;BME280;69915;54.862;10.730;2023-07-09T01:30:01;102093.00;;;15.36;84.05
80566;BME280;69915;54.862;10.730;2023-07-09T01:32:27;102076.22;;;15.09;85.35
80566;BME280;69915;54.862;10.730;2023-07-09T01:34:57;102090.66;;;14.96;86.43
80566;BME280;69915;54.862;10.730;2023-07-09T01:37:26;102088.66;;;14.73;87.18
80566;BME280;69915;54.862;10.730;2023-07-09T01:39:52;102094.34;;;14.52;88.24
80566;BME280;69915;54.862;10.730;2023-07-09T01:42:20;102065.34;;;14.21;88.10
80566;BME280;69915;54.862;10.730;2023-07-09T01:44:50;102071.31;;;14.28;89.55
80566;BME280;69915;54.862;10.730;2023-07-09T01:47:17;102096.56;;;14.45;89.83
80566;BME280;69915;54.862;10.730;2023-07-09T01:49:43;102084.69;;;14.50;90.13
80566;BME280;69915;54.862;10.730;2023-07-09T01:52:13;102083.66;;;14.46;89.42
80566;BME280;69915;54.862;10.730;2023-07-09T01:54:42;102087.75;;;14.48;89.62
80566;BME280;69915;54.862;10.730;2023-07-09T01:57:20;102091.13;;;14.74;89.65
80566;BME280;69915;54.862;10.730;2023-07-09T01:59:53;102066.97;;;14.66;89.05
80566;BME280;69915;54.862;10.730;2023-07-09T02:02:21;102091.34;;;14.83;89.04
80566;BME280;69915;54.862;10.730;2023-07-09T02:04:51;102089.38;;;14.83;88.44
80566;BME280;69915;54.862;10.730;2023-07-09T02:07:18;102093.41;;;14.96;88.60
80566;BME280;69915;54.862;10.730;2023-07-09T02:09:44;102093.97;;;14.98;88.26
80566;BME280;69915;54.862;10.730;2023-07-09T02:12:11;102082.97;;;14.93;87.90
80566;BME280;69915;54.862;10.730;2023-07-09T02:14:38;102088.38;;;15.03;88.32
80566;BME280;69915;54.862;10.730;2023-07-09T02:17:04;102088.31;;;15.13;88.23
80566;BME280;69915;54.862;10.730;2023-07-09T02:19:44;102079.69;;;15.19;87.46
80566;BME280;69915;54.862;10.730;2023-07-09T02:22:12;102077.72;;;15.25;86.78
80566;BME280;69915;54.862;10.730;2023-07-09T02:24:38;102062.59;;;15.22;87.23
80566;BME280;69915;54.862;10.730;2023-07-09T02:27:06;102059.88;;;15.17;87.42
80566;BME280;69915;54.862;10.730;2023-07-09T02:29:32;102051.34;;;15.14;87.29
80566;BME280;69915;54.862;10.730;2023-07-09T02:31:59;102063.59;;;15.32;87.04
80566;BME280;69915;54.862;10.730;2023-07-09T02:34:26;102039.53;;;15.13;87.30
80566;BME280;69915;54.862;10.730;2023-07-09T02:36:53;102035.66;;;15.14;87.90
80566;BME280;69915;54.862;10.730;2023-07-09T02:39:19;102063.28;;;15.33;87.90
80566;BME280;69915;54.862;10.730;2023-07-09T02:41:45;102068.50;;;15.35;87.11
80566;BME280;69915;54.862;10.730;2023-07-09T02:44:11;102068.56;;;15.30;87.62
80566;BME280;69915;54.862;10.730;2023-07-09T02:46:37;102053.00;;;15.15;88.03
80566;BME280;69915;54.862;10.730;2023-07-09T02:49:04;102077.16;;;15.23;88.02
80566;BME280;69915;54.862;10.730;2023-07-09T02:51:31;102074.22;;;15.14;87.87
80566;BME280;69915;54.862;10.730;2023-07-09T02:53:58;102090.47;;;15.16;86.91
80566;BME280;69915;54.862;10.730;2023-07-09T02:56:23;102073.31;;;15.24;87.18
80566;BME280;69915;54.862;10.730;2023-07-09T02:58:50;102069.97;;;15.27;86.18
80566;BME280;69915;54.862;10.730;2023-07-09T03:01:17;102057.22;;;15.07;86.36
80566;BME280;69915;54.862;10.730;2023-07-09T03:03:43;102070.03;;;15.22;86.94
80566;BME280;69915;54.862;10.730;2023-07-09T03:06:08;102082.66;;;15.23;87.21
80566;BME280;69915;54.862;10.730;2023-07-09T03:08:34;102090.94;;;15.23;87.46
80566;BME280;69915;54.862;10.730;2023-07-09T03:11:08;102077.69;;;15.01;87.03
80566;BME280;69915;54.862;10.730;2023-07-09T03:13:34;102085.13;;;15.01;87.17
80566;BME280;69915;54.862;10.730;2023-07-09T03:16:00;102096.59;;;15.08;87.75
80566;BME280;69915;54.862;10.730;2023-07-09T03:18:25;102088.63;;;15.06;87.34
80566;BME280;69915;54.862;10.730;2023-07-09T03:20:51;102093.81;;;15.13;87.26
80566;BME280;69915;54.862;10.730;2023-07-09T03:23:17;102070.69;;;15.09;87.54
80566;BME280;69915;54.862;10.730;2023-07-09T03:25:43;102056.75;;;15.00;88.48
80566;BME280;69915;54.862;10.730;2023-07-09T03:28:11;102062.00;;;14.97;87.87
80566;BME280;69915;54.862;10.730;2023-07-09T03:30:41;102064.94;;;15.05;88.53
80566;BME280;69915;54.862;10.730;2023-07-09T03:33:07;102073.97;;;15.11;87.88
80566;BME280;69915;54.862;10.730;2023-07-09T03:35:32;102092.34;;;15.20;87.72
80566;BME280;69915;54.862;10.730;2023-07-09T03:38:00;102098.19;;;15.43;87.94
80566;BME280;69915;54.862;10.730;2023-07-09T03:40:26;102094.22;;;15.54;87.30
80566;BME280;69915;54.862;10.730;2023-07-09T03:42:51;102088.50;;;15.45;86.53
80566;BME280;69915;54.862;10.730;2023-07-09T03:45:17;102053.59;;;15.36;86.97
80566;BME280;69915;54.862;10.730;2023-07-09T03:47:42;102057.88;;;15.52;86.62
80566;BME280;69915;54.862;10.730;2023-07-09T03:50:10;102086.91;;;15.68;86.44
80566;BME280;69915;54.862;10.730;2023-07-09T03:52:37;102084.81;;;15.78;85.38
80566;BME280;69915;54.862;10.730;2023-07-09T03:55:03;102066.19;;;15.70;85.74
80566;BME280;69915;54.862;10.730;2023-07-09T03:57:32;102068.38;;;15.92;85.80
80566;BME280;69915;54.862;10.730;2023-07-09T03:59:58;102055.25;;;16.03;84.98
80566;BME280;69915;54.862;10.730;2023-07-09T04:02:24;102073.94;;;16.29;85.43
80566;BME280;69915;54.862;10.730;2023-07-09T04:04:49;102079.41;;;16.48;83.62
80566;BME280;69915;54.862;10.730;2023-07-09T04:07:15;102070.78;;;16.55;83.34
80566;BME280;69915;54.862;10.730;2023-07-09T04:09:41;102076.97;;;16.65;82.78
80566;BME280;69915;54.862;10.730;2023-07-09T04:12:08;102062.66;;;16.63;82.99
80566;BME280;69915;54.862;10.730;2023-07-09T04:14:34;102079.47;;;16.80;82.60
80566;BME280;69915;54.862;10.730;2023-07-09T04:17:00;102074.59;;;16.91;82.43
80566;BME280;69915;54.862;10.730;2023-07-09T04:19:26;102068.16;;;16.96;81.28
80566;BME280;69915;54.862;10.730;2023-07-09T04:21:51;102063.16;;;16.98;81.77
80566;BME280;69915;54.862;10.730;2023-07-09T04:24:18;102069.81;;;17.10;81.89
80566;BME280;69915;54.862;10.730;2023-07-09T04:26:44;102076.00;;;17.21;81.45
80566;BME280;69915;54.862;10.730;2023-07-09T04:29:11;102068.09;;;17.28;80.34
80566;BME280;69915;54.862;10.730;2023-07-09T04:31:38;102060.94;;;17.40;80.06
80566;BME280;69915;54.862;10.730;2023-07-09T04:34:04;102065.31;;;17.60;80.15
80566;BME280;69915;54.862;10.730;2023-07-09T04:36:30;102048.72;;;17.60;79.37
80566;BME280;69915;54.862;10.730;2023-07-09T04:38:57;102067.34;;;17.82;78.60
80566;BME280;69915;54.862;10.730;2023-07-09T04:41:22;102064.25;;;17.83;78.67
80566;BME280;69915;54.862;10.730;2023-07-09T04:43:48;102079.81;;;18.07;78.65
80566;BME280;69915;54.862;10.730;2023-07-09T04:46:14;102077.72;;;18.12;77.59
80566;BME280;69915;54.862;10.730;2023-07-09T04:48:40;102066.25;;;18.19;77.48
80566;BME280;69915;54.862;10.730;2023-07-09T04:51:06;102074.50;;;18.32;76.93
80566;BME280;69915;54.862;10.730;2023-07-09T04:53:31;102079.06;;;18.51;75.24
80566;BME280;69915;54.862;10.730;2023-07-09T04:55:57;102055.78;;;18.52;74.09
80566;BME280;69915;54.862;10.730;2023-07-09T04:58:23;102081.28;;;18.84;74.80
80566;BME280;69915;54.862;10.730;2023-07-09T05:00:49;102075.63;;;18.89;73.52
80566;BME280;69915;54.862;10.730;2023-07-09T05:03:17;102087.06;;;18.96;73.55
80566;BME280;69915;54.862;10.730;2023-07-09T05:05:46;102055.25;;;18.94;71.40
80566;BME280;69915;54.862;10.730;2023-07-09T05:08:13;102062.22;;;19.14;71.97
80566;BME280;69915;54.862;10.730;2023-07-09T05:10:43;102077.44;;;19.25;70.08
80566;BME280;69915;54.862;10.730;2023-07-09T05:13:10;102055.81;;;19.05;69.29
80566;BME280;69915;54.862;10.730;2023-07-09T05:15:37;102079.91;;;19.26;69.65
80566;BME280;69915;54.862;10.730;2023-07-09T05:18:05;102063.19;;;19.40;69.46
80566;BME280;69915;54.862;10.730;2023-07-09T05:20:30;102072.06;;;19.59;68.11
80566;BME280;69915;54.862;10.730;2023-07-09T05:22:56;102042.44;;;19.37;68.81
80566;BME280;69915;54.862;10.730;2023-07-09T05:25:21;102075.50;;;19.56;69.18
80566;BME280;69915;54.862;10.730;2023-07-09T05:27:47;102065.88;;;19.62;69.58
80566;BME280;69915;54.862;10.730;2023-07-09T05:30:13;102046.31;;;19.67;69.51
80566;BME280;69915;54.862;10.730;2023-07-09T05:32:38;102054.34;;;19.77;69.20
80566;BME280;69915;54.862;10.730;2023-07-09T05:35:04;102055.97;;;19.78;69.85
80566;BME280;69915;54.862;10.730;2023-07-09T05:37:30;102073.63;;;19.91;69.63
80566;BME280;69915;54.862;10.730;2023-07-09T05:39:56;102051.91;;;19.84;69.75
80566;BME280;69915;54.862;10.730;2023-07-09T05:42:21;102037.22;;;19.84;69.10
80566;BME280;69915;54.862;10.730;2023-07-09T05:44:47;102080.69;;;20.23;69.82
80566;BME280;69915;54.862;10.730;2023-07-09T05:47:13;102083.19;;;20.41;68.29
80566;BME280;69915;54.862;10.730;2023-07-09T05:49:39;102080.41;;;20.41;67.35
80566;BME280;69915;54.862;10.730;2023-07-09T05:52:04;102081.72;;;20.35;67.27
80566;BME280;69915;54.862;10.730;2023-07-09T05:54:31;102092.66;;;20.32;68.03
80566;BME280;69915;54.862;10.730;2023-07-09T05:56:56;102069.78;;;20.26;66.83
80566;BME280;69915;54.862;10.730;2023-07-09T05:59:22;102079.28;;;20.51;67.40
80566;BME280;69915;54.862;10.730;2023-07-09T06:01:48;102084.66;;;20.73;66.68
80566;BME280;69915;54.862;10.730;2023-07-09T06:04:13;102099.34;;;20.65;66.18
80566;BME280;69915;54.862;10.730;2023-07-09T06:06:40;102083.81;;;20.64;66.72
80566;BME280;69915;54.862;10.730;2023-07-09T06:09:07;102107.31;;;21.01;64.41
80566;BME280;69915;54.862;10.730;2023-07-09T06:11:34;102078.72;;;21.00;64.38
80566;BME280;69915;54.862;10.730;2023-07-09T06:14:00;102083.47;;;20.83;62.53
80566;BME280;69915;54.862;10.730;2023-07-09T06:16:27;102080.03;;;20.86;62.57
80566;BME280;69915;54.862;10.730;2023-07-09T06:18:52;102096.72;;;20.86;61.71
80566;BME280;69915;54.862;10.730;2023-07-09T06:21:18;102079.56;;;20.84;60.41
80566;BME280;69915;54.862;10.730;2023-07-09T06:23:45;102102.56;;;21.01;61.53
80566;BME280;69915;54.862;10.730;2023-07-09T06:26:11;102101.91;;;21.30;59.85
80566;BME280;69915;54.862;10.730;2023-07-09T06:28:37;102099.97;;;21.22;59.50
80566;BME280;69915;54.862;10.730;2023-07-09T06:31:03;102094.41;;;21.13;60.05
80566;BME280;69915;54.862;10.730;2023-07-09T06:33:29;102099.63;;;21.24;59.99
80566;BME280;69915;54.862;10.730;2023-07-09T06:35:57;102085.44;;;21.54;60.13
80566;BME280;69915;54.862;10.730;2023-07-09T06:38:23;102105.34;;;21.65;59.26
80566;BME280;69915;54.862;10.730;2023-07-09T06:40:50;102092.25;;;21.65;59.24
80566;BME280;69915;54.862;10.730;2023-07-09T06:43:16;102096.97;;;21.65;58.98
80566;BME280;69915;54.862;10.730;2023-07-09T06:45:57;102086.91;;;21.52;59.46
80566;BME280;69915;54.862;10.730;2023-07-09T06:48:24;102099.34;;;21.84;58.87
80566;BME280;69915;54.862;10.730;2023-07-09T06:50:51;102112.19;;;22.05;58.02
80566;BME280;69915;54.862;10.730;2023-07-09T06:53:17;102074.72;;;22.23;56.43
80566;BME280;69915;54.862;10.730;2023-07-09T06:55:42;102075.88;;;22.22;57.48
80566;BME280;69915;54.862;10.730;2023-07-09T06:58:09;102091.25;;;22.29;57.84
80566;BME280;69915;54.862;10.730;2023-07-09T07:00:36;102094.09;;;22.41;57.32
80566;BME280;69915;54.862;10.730;2023-07-09T07:03:02;102107.56;;;22.80;56.38
80566;BME280;69915;54.862;10.730;2023-07-09T07:05:28;102092.19;;;22.74;54.88
80566;BME280;69915;54.862;10.730;2023-07-09T07:07:53;102080.91;;;22.50;56.06
80566;BME280;69915;54.862;10.730;2023-07-09T07:10:19;102092.31;;;22.36;56.58
80566;BME280;69915;54.862;10.730;2023-07-09T07:12:47;102092.56;;;22.64;56.07
80566;BME280;69915;54.862;10.730;2023-07-09T07:15:16;102075.22;;;23.12;55.47
80566;BME280;69915;54.862;10.730;2023-07-09T07:17:42;102087.50;;;23.44;53.57
80566;BME280;69915;54.862;10.730;2023-07-09T07:20:10;102065.53;;;23.42;53.99
80566;BME280;69915;54.862;10.730;2023-07-09T07:22:36;102091.69;;;23.98;52.51
80566;BME280;69915;54.862;10.730;2023-07-09T07:25:04;102096.13;;;24.11;50.51
80566;BME280;69915;54.862;10.730;2023-07-09T07:27:30;102096.59;;;23.53;53.00
80566;BME280;69915;54.862;10.730;2023-07-09T07:29:56;102095.84;;;22.66;54.75
80566;BME280;69915;54.862;10.730;2023-07-09T07:32:21;102080.97;;;22.62;54.49
80566;BME280;69915;54.862;10.730;2023-07-09T07:34:47;102086.88;;;22.81;51.85
80566;BME280;69915;54.862;10.730;2023-07-09T07:37:14;102087.25;;;22.92;53.37
80566;BME280;69915;54.862;10.730;2023-07-09T07:39:39;102058.78;;;22.86;52.71
80566;BME280;69915;54.862;10.730;2023-07-09T07:42:06;102086.66;;;23.31;52.01
80566;BME280;69915;54.862;10.730;2023-07-09T07:44:32;102095.19;;;23.71;50.19
80566;BME280;69915;54.862;10.730;2023-07-09T07:46:58;102088.59;;;24.52;47.17
80566;BME280;69915;54.862;10.730;2023-07-09T07:49:23;102068.22;;;25.54;46.45
80566;BME280;69915;54.862;10.730;2023-07-09T07:51:49;102087.34;;;25.98;43.81
80566;BME280;69915;54.862;10.730;2023-07-09T07:54:14;102078.19;;;26.75;41.13
80566;BME280;69915;54.862;10.730;2023-07-09T07:56:40;102077.66;;;27.30;40.70
80566;BME280;69915;54.862;10.730;2023-07-09T07:59:07;102083.41;;;27.86;39.63
80566;BME280;69915;54.862;10.730;2023-07-09T08:01:33;102078.31;;;28.18;38.32
80566;BME280;69915;54.862;10.730;2023-07-09T08:04:02;102063.03;;;27.93;38.20
80566;BME280;69915;54.862;10.730;2023-07-09T08:06:28;102080.53;;;27.11;38.37
80566;BME280;69915;54.862;10.730;2023-07-09T08:08:53;102080.31;;;27.42;36.48
80566;BME280;69915;54.862;10.730;2023-07-09T08:11:19;102065.00;;;27.40;36.19
80566;BME280;69915;54.862;10.730;2023-07-09T08:13:44;102071.59;;;27.28;36.83
80566;BME280;69915;54.862;10.730;2023-07-09T08:16:10;102078.56;;;27.57;35.11
80566;BME280;69915;54.862;10.730;2023-07-09T08:18:39;102079.78;;;28.08;35.95
80566;BME280;69915;54.862;10.730;2023-07-09T08:21:05;102075.13;;;27.44;37.07
80566;BME280;69915;54.862;10.730;2023-07-09T08:23:30;102073.16;;;28.24;35.63
80566;BME280;69915;54.862;10.730;2023-07-09T08:25:57;102074.31;;;28.49;34.70
80566;BME280;69915;54.862;10.730;2023-07-09T08:28:24;102071.97;;;27.98;36.55
80566;BME280;69915;54.862;10.730;2023-07-09T08:30:52;102047.19;;;27.10;38.14
80566;BME280;69915;54.862;10.730;2023-07-09T08:33:18;102044.94;;;27.41;37.31
80566;BME280;69915;54.862;10.730;2023-07-09T08:35:44;102050.50;;;28.43;37.48
80566;BME280;69915;54.862;10.730;2023-07-09T08:38:09;102073.88;;;28.17;37.25
80566;BME280;69915;54.862;10.730;2023-07-09T08:40:43;102049.53;;;28.28;37.69
80566;BME280;69915;54.862;10.730;2023-07-09T08:43:31;102059.59;;;28.03;37.97
80566;BME280;69915;54.862;10.730;2023-07-09T08:48:38;102065.31;;;28.70;37.34
80566;BME280;69915;54.862;10.730;2023-07-09T08:51:15;102082.97;;;28.67;38.08
80566;BME280;69915;54.862;10.730;2023-07-09T08:53:51;102060.63;;;28.18;37.48
80566;BME280;69915;54.862;10.730;2023-07-09T08:56:19;102069.25;;;29.35;37.10
80566;BME280;69915;54.862;10.730;2023-07-09T08:58:49;102056.47;;;29.48;36.31
80566;BME280;69915;54.862;10.730;2023-07-09T09:01:28;102066.06;;;29.00;37.11
80566;BME280;69915;54.862;10.730;2023-07-09T09:04:02;102069.91;;;30.23;35.52
80566;BME280;69915;54.862;10.730;2023-07-09T09:06:30;102061.75;;;30.08;35.31
80566;BME280;69915;54.862;10.730;2023-07-09T09:11:59;102085.63;;;30.21;36.42
80566;BME280;69915;54.862;10.730;2023-07-09T09:14:35;102056.53;;;29.55;37.04
80566;BME280;69915;54.862;10.730;2023-07-09T09:19:59;102014.34;;;29.18;36.89
80566;BME280;69915;54.862;10.730;2023-07-09T09:23:14;102091.16;;;28.79;37.74
80566;BME280;69915;54.862;10.730;2023-07-09T09:26:01;102040.63;;;28.93;37.11
80566;BME280;69915;54.862;10.730;2023-07-09T09:28:47;102072.22;;;29.12;37.17
80566;BME280;69915;54.862;10.730;2023-07-09T09:31:17;102096.94;;;28.93;39.23
80566;BME280;69915;54.862;10.730;2023-07-09T09:33:53;102092.72;;;28.43;40.13
80566;BME280;69915;54.862;10.730;2023-07-09T09:36:41;102042.59;;;27.96;40.93
80566;BME280;69915;54.862;10.730;2023-07-09T09:39:09;102098.84;;;27.47;39.90
80566;BME280;69915;54.862;10.730;2023-07-09T09:41:42;102028.09;;;26.54;41.94
80566;BME280;69915;54.862;10.730;2023-07-09T09:44:21;102081.34;;;26.16;45.12
80566;BME280;69915;54.862;10.730;2023-07-09T09:47:17;102030.09;;;25.65;43.64
80566;BME280;69915;54.862;10.730;2023-07-09T09:49:43;102040.03;;;25.15;43.63
80566;BME280;69915;54.862;10.730;2023-07-09T09:52:25;102017.63;;;25.00;44.15
80566;BME280;69915;54.862;10.730;2023-07-09T09:55:05;102054.22;;;25.38;45.74
80566;BME280;69915;54.862;10.730;2023-07-09T09:57:38;102053.78;;;25.52;44.31
80566;BME280;69915;54.862;10.730;2023-07-09T10:00:14;102026.03;;;25.47;44.26
80566;BME280;69915;54.862;10.730;2023-07-09T10:02:56;102037.66;;;25.17;43.88
80566;BME280;69915;54.862;10.730;2023-07-09T10:05:34;102032.00;;;24.98;44.39
80566;BME280;69915;54.862;10.730;2023-07-09T10:10:53;102027.81;;;25.23;44.36
80566;BME280;69915;54.862;10.730;2023-07-09T10:13:37;102029.66;;;25.16;45.31
80566;BME280;69915;54.862;10.730;2023-07-09T10:19:24;102072.72;;;26.24;43.04
80566;BME280;69915;54.862;10.730;2023-07-09T10:22:02;101984.69;;;25.75;43.42
80566;BME280;69915;54.862;10.730;2023-07-09T10:27:54;102013.03;;;25.89;43.23
80566;BME280;69915;54.862;10.730;2023-07-09T10:39:56;102022.16;;;26.21;41.55
80566;BME280;69915;54.862;10.730;2023-07-09T10:42:28;101996.19;;;26.24;41.46
80566;BME280;69915;54.862;10.730;2023-07-09T10:45:13;101994.97;;;26.06;41.47
80566;BME280;69915;54.862;10.730;2023-07-09T10:47:43;102027.28;;;26.34;41.01
80566;BME280;69915;54.862;10.730;2023-07-09T10:50:34;102029.91;;;26.08;43.20
80566;BME280;69915;54.862;10.730;2023-07-09T10:53:28;102056.06;;;26.31;41.20
80566;BME280;69915;54.862;10.730;2023-07-09T10:56:02;102007.38;;;26.20;42.14
80566;BME280;69915;54.862;10.730;2023-07-09T11:01:43;102008.34;;;26.12;41.94
80566;BME280;69915;54.862;10.730;2023-07-09T11:06:47;102045.06;;;26.23;41.85
80566;BME280;69915;54.862;10.730;2023-07-09T11:09:35;102013.75;;;26.21;41.76
80566;BME280;69915;54.862;10.730;2023-07-09T11:15:29;102019.16;;;25.60;41.03
80566;BME280;69915;54.862;10.730;2023-07-09T11:17:57;102003.88;;;25.73;41.70
80566;BME280;69915;54.862;10.730;2023-07-09T11:20:31;101975.81;;;25.38;41.76
80566;BME280;69915;54.862;10.730;2023-07-09T11:23:24;102057.94;;;26.08;43.64
80566;BME280;69915;54.862;10.730;2023-07-09T11:26:20;102044.53;;;26.36;43.03
80566;BME280;69915;54.862;10.730;2023-07-09T11:29:15;102031.56;;;26.28;43.73
80566;BME280;69915;54.862;10.730;2023-07-09T11:31:46;101993.66;;;25.80;43.62
80566;BME280;69915;54.862;10.730;2023-07-09T11:34:17;102055.75;;;25.67;44.46
80566;BME280;69915;54.862;10.730;2023-07-09T11:36:57;102045.81;;;25.54;45.63
80566;BME280;69915;54.862;10.730;2023-07-09T11:39:55;101965.72;;;25.18;44.18
80566;BME280;69915;54.862;10.730;2023-07-09T11:42:47;101972.81;;;25.62;44.50
80566;BME280;69915;54.862;10.730;2023-07-09T11:45:21;101974.81;;;25.81;45.11
80566;BME280;69915;54.862;10.730;2023-07-09T11:51:21;102015.41;;;25.87;45.07
80566;BME280;69915;54.862;10.730;2023-07-09T11:53:53;101978.22;;;25.71;45.45
80566;BME280;69915;54.862;10.730;2023-07-09T11:56:23;101949.69;;;25.84;44.74
80566;BME280;69915;54.862;10.730;2023-07-09T11:58:52;102000.19;;;26.23;44.68
80566;BME280;69915;54.862;10.730;2023-07-09T12:01:29;101971.44;;;26.26;45.61
80566;BME280;69915;54.862;10.730;2023-07-09T12:03:59;101960.03;;;26.57;45.36
80566;BME280;69915;54.862;10.730;2023-07-09T12:06:36;101933.84;;;26.30;43.71
80566;BME280;69915;54.862;10.730;2023-07-09T12:09:30;102012.34;;;26.49;45.87
80566;BME280;69915;54.862;10.730;2023-07-09T12:11:58;101929.84;;;26.12;44.83
80566;BME280;69915;54.862;10.730;2023-07-09T12:14:24;102012.00;;;26.51;44.27
80566;BME280;69915;54.862;10.730;2023-07-09T12:16:51;101959.53;;;26.32;42.84
80566;BME280;69915;54.862;10.730;2023-07-09T12:19:23;101923.84;;;26.29;43.21
80566;BME280;69915;54.862;10.730;2023-07-09T12:21:57;101950.47;;;26.62;43.95
80566;BME280;69915;54.862;10.730;2023-07-09T12:24:35;101926.25;;;25.73;44.62
80566;BME280;69915;54.862;10.730;2023-07-09T12:27:04;101921.34;;;25.35;43.34
80566;BME280;69915;54.862;10.730;2023-07-09T12:29:42;101950.78;;;25.29;43.04
80566;BME280;69915;54.862;10.730;2023-07-09T12:32:16;101938.31;;;25.42;42.94
80566;BME280;69915;54.862;10.730;2023-07-09T12:34:58;101936.44;;;25.31;43.13
80566;BME280;69915;54.862;10.730;2023-07-09T12:37:25;101956.13;;;25.50;42.27
80566;BME280;69915;54.862;10.730;2023-07-09T12:39:53;101924.84;;;25.48;42.22
80566;BME280;69915;54.862;10.730;2023-07-09T12:42:41;101963.00;;;25.53;41.71
80566;BME280;69915;54.862;10.730;2023-07-09T12:45:19;101919.44;;;25.55;41.78
80566;BME280;69915;54.862;10.730;2023-07-09T12:47:52;101938.69;;;25.76;41.55
80566;BME280;69915;54.862;10.730;2023-07-09T12:50:31;101921.91;;;26.14;40.30
80566;BME280;69915;54.862;10.730;2023-07-09T12:53:02;101908.63;;;25.73;39.09
80566;BME280;69915;54.862;10.730;2023-07-09T12:55:42;101887.91;;;25.77;38.92
80566;BME280;69915;54.862;10.730;2023-07-09T12:58:31;101893.88;;;25.95;39.71
80566;BME280;69915;54.862;10.730;2023-07-09T13:00:59;101905.16;;;26.18;38.23
80566;BME280;69915;54.862;10.730;2023-07-09T13:03:32;101953.53;;;26.76;39.67
80566;BME280;69915;54.862;10.730;2023-07-09T13:06:06;101917.16;;;26.37;37.38
80566;BME280;69915;54.862;10.730;2023-07-09T13:08:43;101880.47;;;26.23;39.19
80566;BME280;69915;54.862;10.730;2023-07-09T13:11:17;101918.28;;;25.94;38.38
80566;BME280;69915;54.862;10.730;2023-07-09T13:14:11;101909.28;;;26.05;37.89
80566;BME280;69915;54.862;10.730;2023-07-09T13:16:39;101935.34;;;26.24;37.77
80566;BME280;69915;54.862;10.730;2023-07-09T13:19:06;101905.97;;;25.80;38.11
80566;BME280;69915;54.862;10.730;2023-07-09T13:21:32;101929.59;;;26.17;38.13
80566;BME280;69915;54.862;10.730;2023-07-09T13:23:58;101960.06;;;26.61;37.78
80566;BME280;69915;54.862;10.730;2023-07-09T13:26:24;101884.00;;;26.20;36.30
80566;BME280;69915;54.862;10.730;2023-07-09T13:28:50;101875.28;;;26.25;38.08
80566;BME280;69915;54.862;10.730;2023-07-09T13:31:19;101929.84;;;26.73;36.61
80566;BME280;69915;54.862;10.730;2023-07-09T13:36:30;101912.19;;;26.73;36.43
80566;BME280;69915;54.862;10.730;2023-07-09T13:38:55;101916.81;;;26.62;35.56
80566;BME280;69915;54.862;10.730;2023-07-09T13:41:21;101872.47;;;26.25;36.41
80566;BME280;69915;54.862;10.730;2023-07-09T13:43:50;101960.19;;;26.87;34.36
80566;BME280;69915;54.862;10.730;2023-07-09T13:46:18;101888.69;;;26.35;35.46